sensor_id;sensor_type;location;lat;lon;timestamp;P1;durP1;ratioP1;P2;durP2;ratioP2
11771;SDS011;12556;55.748;13.194;2023-04-26T00:02:23;13.17;;;3.73;;
11771;SDS011;12556;55.748;13.194;2023-04-26T00:04:51;12.53;;;3.93;;
11771;SDS011;12556;55.748;13.194;2023-04-26T00:07:21;8.27;;;3.40;;
11771;SDS011;12556;55.748;13.194;2023-04-26T00:09:49;14.40;;;3.70;;
11771;SDS011;12556;55.748;13.194;2023-04-26T00:12:16;9.67;;;3.60;;
11771;SDS011;12556;55.748;13.194;2023-04-26T00:14:43;17.50;;;3.80;;
11771;SDS011;12556;55.748;13.194;2023-04-26T00:17:10;12.87;;;4.37;;
11771;SDS011;12556;55.748;13.194;2023-04-26T00:19:37;14.43;;;3.73;;
11771;SDS011;12556;55.748;13.194;2023-04-26T00:22:05;12.47;;;3.80;;
11771;SDS011;12556;55.748;13.194;2023-04-26T00:24:34;14.73;;;3.50;;
11771;SDS011;12556;55.748;13.194;2023-04-26T00:27:01;18.77;;;3.57;;
11771;SDS011;12556;55.748;13.194;2023-04-26T00:29:33;14.43;;;3.47;;
11771;SDS011;12556;55.748;13.194;2023-04-26T00:32:00;13.10;;;4.03;;
11771;SDS011;12556;55.748;13.194;2023-04-26T00:34:30;15.57;;;3.93;;
11771;SDS011;12556;55.748;13.194;2023-04-26T00:36:58;14.80;;;3.50;;
11771;SDS011;12556;55.748;13.194;2023-04-26T00:39:25;12.67;;;3.50;;
11771;SDS011;12556;55.748;13.194;2023-04-26T00:41:53;13.27;;;3.93;;
11771;SDS011;12556;55.748;13.194;2023-04-26T00:44:20;13.63;;;3.63;;
11771;SDS011;12556;55.748;13.194;2023-04-26T00:46:47;8.27;;;2.80;;
11771;SDS011;12556;55.748;13.194;2023-04-26T00:49:18;16.00;;;3.63;;
11771;SDS011;12556;55.748;13.194;2023-04-26T00:51:48;16.83;;;4.00;;
11771;SDS011;12556;55.748;13.194;2023-04-26T00:54:16;15.83;;;3.53;;
11771;SDS011;12556;55.748;13.194;2023-04-26T00:56:45;10.20;;;3.60;;
11771;SDS011;12556;55.748;13.194;2023-04-26T00:59:14;17.53;;;3.87;;
11771;SDS011;12556;55.748;13.194;2023-04-26T01:01:40;14.60;;;4.10;;
11771;SDS011;12556;55.748;13.194;2023-04-26T01:04:07;11.50;;;3.17;;
11771;SDS011;12556;55.748;13.194;2023-04-26T01:06:34;17.10;;;4.23;;
11771;SDS011;12556;55.748;13.194;2023-04-26T01:09:03;12.07;;;2.87;;
11771;SDS011;12556;55.748;13.194;2023-04-26T01:11:34;9.57;;;3.53;;
11771;SDS011;12556;55.748;13.194;2023-04-26T01:14:02;18.17;;;3.77;;
11771;SDS011;12556;55.748;13.194;2023-04-26T01:16:31;15.10;;;3.57;;
11771;SDS011;12556;55.748;13.194;2023-04-26T01:19:05;12.20;;;4.10;;
11771;SDS011;12556;55.748;13.194;2023-04-26T01:21:33;11.30;;;3.90;;
11771;SDS011;12556;55.748;13.194;2023-04-26T01:24:02;14.23;;;3.93;;
11771;SDS011;12556;55.748;13.194;2023-04-26T01:26:29;12.87;;;3.80;;
11771;SDS011;12556;55.748;13.194;2023-04-26T01:28:56;16.47;;;3.73;;
11771;SDS011;12556;55.748;13.194;2023-04-26T01:31:23;14.53;;;3.17;;
11771;SDS011;12556;55.748;13.194;2023-04-26T01:33:50;15.90;;;3.80;;
11771;SDS011;12556;55.748;13.194;2023-04-26T01:36:16;9.17;;;3.10;;
11771;SDS011;12556;55.748;13.194;2023-04-26T01:38:43;6.37;;;2.90;;
11771;SDS011;12556;55.748;13.194;2023-04-26T01:41:12;9.90;;;3.33;;
11771;SDS011;12556;55.748;13.194;2023-04-26T01:43:38;9.03;;;3.30;;
11771;SDS011;12556;55.748;13.194;2023-04-26T01:46:06;12.10;;;3.27;;
11771;SDS011;12556;55.748;13.194;2023-04-26T01:48:32;12.87;;;3.70;;
11771;SDS011;12556;55.748;13.194;2023-04-26T01:50:59;16.50;;;4.47;;
11771;SDS011;12556;55.748;13.194;2023-04-26T01:53:26;12.60;;;3.60;;
11771;SDS011;12556;55.748;13.194;2023-04-26T01:55:53;7.93;;;2.97;;
11771;SDS011;12556;55.748;13.194;2023-04-26T01:58:22;10.93;;;3.07;;
11771;SDS011;12556;55.748;13.194;2023-04-26T02:00:49;13.87;;;3.70;;
11771;SDS011;12556;55.748;13.194;2023-04-26T02:03:15;15.10;;;3.20;;
11771;SDS011;12556;55.748;13.194;2023-04-26T02:05:42;10.20;;;3.43;;
11771;SDS011;12556;55.748;13.194;2023-04-26T02:08:09;10.93;;;4.40;;
11771;SDS011;12556;55.748;13.194;2023-04-26T02:10:36;11.63;;;3.57;;
11771;SDS011;12556;55.748;13.194;2023-04-26T02:13:03;12.23;;;2.80;;
11771;SDS011;12556;55.748;13.194;2023-04-26T02:15:34;7.93;;;3.03;;
11771;SDS011;12556;55.748;13.194;2023-04-26T02:18:01;10.97;;;3.13;;
11771;SDS011;12556;55.748;13.194;2023-04-26T02:20:28;9.33;;;3.17;;
11771;SDS011;12556;55.748;13.194;2023-04-26T02:22:55;13.17;;;3.10;;
11771;SDS011;12556;55.748;13.194;2023-04-26T02:25:22;20.70;;;3.50;;
11771;SDS011;12556;55.748;13.194;2023-04-26T02:27:49;12.43;;;2.83;;
11771;SDS011;12556;55.748;13.194;2023-04-26T02:30:16;8.97;;;2.87;;
11771;SDS011;12556;55.748;13.194;2023-04-26T02:32:44;8.60;;;3.10;;
11771;SDS011;12556;55.748;13.194;2023-04-26T02:35:11;9.17;;;2.40;;
11771;SDS011;12556;55.748;13.194;2023-04-26T02:37:38;13.00;;;3.20;;
11771;SDS011;12556;55.748;13.194;2023-04-26T02:40:06;10.80;;;2.90;;
11771;SDS011;12556;55.748;13.194;2023-04-26T02:42:35;13.80;;;3.60;;
11771;SDS011;12556;55.748;13.194;2023-04-26T02:45:02;11.27;;;2.70;;
11771;SDS011;12556;55.748;13.194;2023-04-26T02:47:30;11.40;;;3.40;;
11771;SDS011;12556;55.748;13.194;2023-04-26T02:49:59;11.50;;;3.20;;
11771;SDS011;12556;55.748;13.194;2023-04-26T02:52:25;12.83;;;3.10;;
11771;SDS011;12556;55.748;13.194;2023-04-26T02:54:52;11.93;;;3.27;;
11771;SDS011;12556;55.748;13.194;2023-04-26T02:57:19;6.30;;;2.40;;
11771;SDS011;12556;55.748;13.194;2023-04-26T02:59:46;7.90;;;3.10;;
11771;SDS011;12556;55.748;13.194;2023-04-26T03:02:13;10.93;;;3.13;;
11771;SDS011;12556;55.748;13.194;2023-04-26T03:04:40;8.83;;;2.83;;
11771;SDS011;12556;55.748;13.194;2023-04-26T03:07:09;12.27;;;2.30;;
11771;SDS011;12556;55.748;13.194;2023-04-26T03:09:35;13.53;;;2.83;;
11771;SDS011;12556;55.748;13.194;2023-04-26T03:12:03;8.47;;;3.10;;
11771;SDS011;12556;55.748;13.194;2023-04-26T03:14:31;13.37;;;2.97;;
11771;SDS011;12556;55.748;13.194;2023-04-26T03:16:58;13.70;;;3.17;;
11771;SDS011;12556;55.748;13.194;2023-04-26T03:19:25;10.10;;;2.60;;
11771;SDS011;12556;55.748;13.194;2023-04-26T03:21:52;12.03;;;2.90;;
11771;SDS011;12556;55.748;13.194;2023-04-26T03:24:21;8.47;;;2.83;;
11771;SDS011;12556;55.748;13.194;2023-04-26T03:26:48;4.97;;;2.20;;
11771;SDS011;12556;55.748;13.194;2023-04-26T03:29:15;6.70;;;2.70;;
11771;SDS011;12556;55.748;13.194;2023-04-26T03:31:42;9.37;;;2.90;;
11771;SDS011;12556;55.748;13.194;2023-04-26T03:34:09;10.77;;;3.23;;
11771;SDS011;12556;55.748;13.194;2023-04-26T03:36:36;8.23;;;2.77;;
11771;SDS011;12556;55.748;13.194;2023-04-26T03:39:03;8.33;;;3.20;;
11771;SDS011;12556;55.748;13.194;2023-04-26T03:41:32;7.73;;;2.27;;
11771;SDS011;12556;55.748;13.194;2023-04-26T03:44:01;14.60;;;3.77;;
11771;SDS011;12556;55.748;13.194;2023-04-26T03:46:27;10.07;;;3.23;;
11771;SDS011;12556;55.748;13.194;2023-04-26T03:48:54;9.33;;;3.30;;
11771;SDS011;12556;55.748;13.194;2023-04-26T03:51:21;8.60;;;2.63;;
11771;SDS011;12556;55.748;13.194;2023-04-26T03:53:48;5.27;;;2.63;;
11771;SDS011;12556;55.748;13.194;2023-04-26T03:56:15;9.63;;;2.87;;
11771;SDS011;12556;55.748;13.194;2023-04-26T03:58:44;10.93;;;2.67;;
11771;SDS011;12556;55.748;13.194;2023-04-26T04:01:11;10.33;;;2.83;;
11771;SDS011;12556;55.748;13.194;2023-04-26T04:03:38;7.37;;;2.93;;
11771;SDS011;12556;55.748;13.194;2023-04-26T04:06:05;14.03;;;2.97;;
11771;SDS011;12556;55.748;13.194;2023-04-26T04:08:32;9.70;;;3.17;;
11771;SDS011;12556;55.748;13.194;2023-04-26T04:10:59;13.10;;;3.30;;
11771;SDS011;12556;55.748;13.194;2023-04-26T04:13:26;6.10;;;2.27;;
11771;SDS011;12556;55.748;13.194;2023-04-26T04:15:55;6.77;;;2.70;;
11771;SDS011;12556;55.748;13.194;2023-04-26T04:18:21;7.93;;;2.80;;
11771;SDS011;12556;55.748;13.194;2023-04-26T04:20:48;6.53;;;2.37;;
11771;SDS011;12556;55.748;13.194;2023-04-26T04:23:15;9.37;;;2.47;;
11771;SDS011;12556;55.748;13.194;2023-04-26T04:25:42;15.20;;;3.73;;
11771;SDS011;12556;55.748;13.194;2023-04-26T04:28:09;12.07;;;2.50;;
11771;SDS011;12556;55.748;13.194;2023-04-26T04:30:37;11.33;;;2.70;;
11771;SDS011;12556;55.748;13.194;2023-04-26T04:33:05;7.97;;;2.13;;
11771;SDS011;12556;55.748;13.194;2023-04-26T04:35:32;8.07;;;2.33;;
11771;SDS011;12556;55.748;13.194;2023-04-26T04:37:59;6.73;;;2.23;;
11771;SDS011;12556;55.748;13.194;2023-04-26T04:40:27;6.27;;;2.30;;
11771;SDS011;12556;55.748;13.194;2023-04-26T04:42:55;10.17;;;2.50;;
11771;SDS011;12556;55.748;13.194;2023-04-26T04:45:24;7.50;;;2.80;;
11771;SDS011;12556;55.748;13.194;2023-04-26T04:47:52;7.83;;;2.20;;
11771;SDS011;12556;55.748;13.194;2023-04-26T04:50:21;8.33;;;2.90;;
11771;SDS011;12556;55.748;13.194;2023-04-26T04:52:48;6.53;;;2.27;;
11771;SDS011;12556;55.748;13.194;2023-04-26T04:55:15;10.73;;;2.27;;
11771;SDS011;12556;55.748;13.194;2023-04-26T04:57:42;6.47;;;2.50;;
11771;SDS011;12556;55.748;13.194;2023-04-26T05:00:10;10.53;;;2.47;;
11771;SDS011;12556;55.748;13.194;2023-04-26T05:02:37;11.13;;;1.93;;
11771;SDS011;12556;55.748;13.194;2023-04-26T05:05:05;6.40;;;2.43;;
11771;SDS011;12556;55.748;13.194;2023-04-26T05:07:33;8.47;;;2.20;;
11771;SDS011;12556;55.748;13.194;2023-04-26T05:10:00;9.27;;;2.53;;
11771;SDS011;12556;55.748;13.194;2023-04-26T05:12:27;5.30;;;1.97;;
11771;SDS011;12556;55.748;13.194;2023-04-26T05:14:54;8.60;;;2.17;;
11771;SDS011;12556;55.748;13.194;2023-04-26T05:17:21;9.83;;;2.30;;
11771;SDS011;12556;55.748;13.194;2023-04-26T05:19:48;7.13;;;1.83;;
11771;SDS011;12556;55.748;13.194;2023-04-26T05:22:15;8.30;;;2.43;;
11771;SDS011;12556;55.748;13.194;2023-04-26T05:24:46;7.53;;;2.80;;
11771;SDS011;12556;55.748;13.194;2023-04-26T05:27:14;4.70;;;1.97;;
11771;SDS011;12556;55.748;13.194;2023-04-26T05:29:41;8.17;;;2.53;;
11771;SDS011;12556;55.748;13.194;2023-04-26T05:32:08;8.53;;;2.47;;
11771;SDS011;12556;55.748;13.194;2023-04-26T05:34:35;6.17;;;2.37;;
11771;SDS011;12556;55.748;13.194;2023-04-26T05:37:02;9.47;;;2.00;;
11771;SDS011;12556;55.748;13.194;2023-04-26T05:39:29;8.63;;;2.50;;
11771;SDS011;12556;55.748;13.194;2023-04-26T05:41:57;4.67;;;1.80;;
11771;SDS011;12556;55.748;13.194;2023-04-26T05:44:25;6.33;;;2.20;;
11771;SDS011;12556;55.748;13.194;2023-04-26T05:46:52;6.20;;;2.17;;
11771;SDS011;12556;55.748;13.194;2023-04-26T05:49:19;8.27;;;2.27;;
11771;SDS011;12556;55.748;13.194;2023-04-26T05:51:46;8.67;;;2.27;;
11771;SDS011;12556;55.748;13.194;2023-04-26T05:54:13;4.33;;;2.67;;
11771;SDS011;12556;55.748;13.194;2023-04-26T05:56:40;4.40;;;2.10;;
11771;SDS011;12556;55.748;13.194;2023-04-26T05:59:08;4.63;;;2.30;;
11771;SDS011;12556;55.748;13.194;2023-04-26T06:01:36;8.70;;;2.30;;
11771;SDS011;12556;55.748;13.194;2023-04-26T06:04:03;4.13;;;2.07;;
11771;SDS011;12556;55.748;13.194;2023-04-26T06:06:30;6.10;;;1.93;;
11771;SDS011;12556;55.748;13.194;2023-04-26T06:08:57;7.53;;;2.23;;
11771;SDS011;12556;55.748;13.194;2023-04-26T06:11:24;7.77;;;2.40;;
11771;SDS011;12556;55.748;13.194;2023-04-26T06:13:51;5.37;;;1.70;;
11771;SDS011;12556;55.748;13.194;2023-04-26T06:16:19;7.83;;;2.03;;
11771;SDS011;12556;55.748;13.194;2023-04-26T06:18:47;5.17;;;1.97;;
11771;SDS011;12556;55.748;13.194;2023-04-26T06:21:14;6.07;;;1.80;;
11771;SDS011;12556;55.748;13.194;2023-04-26T06:23:41;5.90;;;1.90;;
11771;SDS011;12556;55.748;13.194;2023-04-26T06:26:08;5.70;;;1.93;;
11771;SDS011;12556;55.748;13.194;2023-04-26T06:28:35;4.93;;;1.63;;
11771;SDS011;12556;55.748;13.194;2023-04-26T06:31:02;3.67;;;1.67;;
11771;SDS011;12556;55.748;13.194;2023-04-26T06:33:30;5.33;;;1.73;;
11771;SDS011;12556;55.748;13.194;2023-04-26T06:35:58;5.90;;;1.93;;
11771;SDS011;12556;55.748;13.194;2023-04-26T06:38:25;6.03;;;1.90;;
11771;SDS011;12556;55.748;13.194;2023-04-26T06:40:52;7.50;;;2.23;;
11771;SDS011;12556;55.748;13.194;2023-04-26T06:43:19;7.60;;;2.10;;
11771;SDS011;12556;55.748;13.194;2023-04-26T06:45:47;6.63;;;2.00;;
11771;SDS011;12556;55.748;13.194;2023-04-26T06:48:17;3.53;;;1.70;;
11771;SDS011;12556;55.748;13.194;2023-04-26T06:50:46;6.83;;;2.17;;
11771;SDS011;12556;55.748;13.194;2023-04-26T06:53:12;6.27;;;1.93;;
11771;SDS011;12556;55.748;13.194;2023-04-26T06:55:39;7.03;;;1.57;;
11771;SDS011;12556;55.748;13.194;2023-04-26T06:58:06;7.23;;;2.20;;
11771;SDS011;12556;55.748;13.194;2023-04-26T07:00:33;6.00;;;2.20;;
11771;SDS011;12556;55.748;13.194;2023-04-26T07:03:00;6.23;;;2.37;;
11771;SDS011;12556;55.748;13.194;2023-04-26T07:05:27;5.67;;;2.20;;
11771;SDS011;12556;55.748;13.194;2023-04-26T07:07:55;6.67;;;2.30;;
11771;SDS011;12556;55.748;13.194;2023-04-26T07:10:22;4.00;;;1.97;;
11771;SDS011;12556;55.748;13.194;2023-04-26T07:12:50;6.57;;;2.13;;
11771;SDS011;12556;55.748;13.194;2023-04-26T07:15:16;7.33;;;1.80;;
11771;SDS011;12556;55.748;13.194;2023-04-26T07:17:43;8.57;;;2.30;;
11771;SDS011;12556;55.748;13.194;2023-04-26T07:20:10;4.93;;;2.17;;
11771;SDS011;12556;55.748;13.194;2023-04-26T07:22:39;5.33;;;2.20;;
11771;SDS011;12556;55.748;13.194;2023-04-26T07:25:08;7.77;;;1.80;;
11771;SDS011;12556;55.748;13.194;2023-04-26T07:27:35;4.17;;;1.53;;
11771;SDS011;12556;55.748;13.194;2023-04-26T07:30:02;6.37;;;1.93;;
11771;SDS011;12556;55.748;13.194;2023-04-26T07:32:30;5.97;;;1.80;;
11771;SDS011;12556;55.748;13.194;2023-04-26T07:34:57;6.77;;;2.20;;
11771;SDS011;12556;55.748;13.194;2023-04-26T07:37:24;4.77;;;1.57;;
11771;SDS011;12556;55.748;13.194;2023-04-26T07:39:50;5.40;;;1.80;;
11771;SDS011;12556;55.748;13.194;2023-04-26T07:42:19;4.37;;;2.07;;
11771;SDS011;12556;55.748;13.194;2023-04-26T07:44:46;4.33;;;1.53;;
11771;SDS011;12556;55.748;13.194;2023-04-26T07:47:13;5.30;;;2.10;;
11771;SDS011;12556;55.748;13.194;2023-04-26T07:49:41;4.33;;;1.57;;
11771;SDS011;12556;55.748;13.194;2023-04-26T07:52:07;3.77;;;1.80;;
11771;SDS011;12556;55.748;13.194;2023-04-26T07:54:35;6.07;;;1.93;;
11771;SDS011;12556;55.748;13.194;2023-04-26T07:57:02;6.30;;;1.93;;
11771;SDS011;12556;55.748;13.194;2023-04-26T07:59:30;4.80;;;2.00;;
11771;SDS011;12556;55.748;13.194;2023-04-26T08:01:57;5.63;;;1.80;;
11771;SDS011;12556;55.748;13.194;2023-04-26T08:04:29;5.23;;;1.80;;
11771;SDS011;12556;55.748;13.194;2023-04-26T08:06:58;4.03;;;1.70;;
11771;SDS011;12556;55.748;13.194;2023-04-26T08:09:26;4.00;;;1.90;;
11771;SDS011;12556;55.748;13.194;2023-04-26T08:11:53;7.83;;;1.63;;
11771;SDS011;12556;55.748;13.194;2023-04-26T08:14:20;5.67;;;2.00;;
11771;SDS011;12556;55.748;13.194;2023-04-26T08:16:48;7.33;;;2.77;;
11771;SDS011;12556;55.748;13.194;2023-04-26T08:19:15;3.73;;;1.60;;
11771;SDS011;12556;55.748;13.194;2023-04-26T08:21:42;3.17;;;2.10;;
11771;SDS011;12556;55.748;13.194;2023-04-26T08:24:09;4.33;;;1.57;;
11771;SDS011;12556;55.748;13.194;2023-04-26T08:26:36;2.80;;;1.73;;
11771;SDS011;12556;55.748;13.194;2023-04-26T08:29:03;4.47;;;2.00;;
11771;SDS011;12556;55.748;13.194;2023-04-26T08:31:30;5.00;;;1.53;;
11771;SDS011;12556;55.748;13.194;2023-04-26T08:33:58;3.80;;;1.70;;
11771;SDS011;12556;55.748;13.194;2023-04-26T08:36:25;7.23;;;1.90;;
11771;SDS011;12556;55.748;13.194;2023-04-26T08:38:52;3.97;;;1.67;;
11771;SDS011;12556;55.748;13.194;2023-04-26T08:41:21;5.57;;;1.90;;
11771;SDS011;12556;55.748;13.194;2023-04-26T08:43:49;3.77;;;1.70;;
11771;SDS011;12556;55.748;13.194;2023-04-26T08:46:18;4.83;;;1.60;;
11771;SDS011;12556;55.748;13.194;2023-04-26T08:48:47;6.70;;;1.90;;
11771;SDS011;12556;55.748;13.194;2023-04-26T08:51:21;3.23;;;1.20;;
11771;SDS011;12556;55.748;13.194;2023-04-26T08:53:48;3.33;;;1.43;;
11771;SDS011;12556;55.748;13.194;2023-04-26T08:56:18;5.23;;;1.67;;
11771;SDS011;12556;55.748;13.194;2023-04-26T08:58:48;3.63;;;1.90;;
11771;SDS011;12556;55.748;13.194;2023-04-26T09:01:16;3.50;;;1.50;;
11771;SDS011;12556;55.748;13.194;2023-04-26T09:03:45;5.10;;;1.57;;
11771;SDS011;12556;55.748;13.194;2023-04-26T09:06:12;6.83;;;1.60;;
11771;SDS011;12556;55.748;13.194;2023-04-26T09:08:41;4.43;;;1.67;;
11771;SDS011;12556;55.748;13.194;2023-04-26T09:11:09;6.33;;;1.93;;
11771;SDS011;12556;55.748;13.194;2023-04-26T09:13:36;3.40;;;1.63;;
11771;SDS011;12556;55.748;13.194;2023-04-26T09:16:03;5.97;;;1.97;;
11771;SDS011;12556;55.748;13.194;2023-04-26T09:18:31;5.87;;;1.80;;
11771;SDS011;12556;55.748;13.194;2023-04-26T09:21:02;6.20;;;1.60;;
11771;SDS011;12556;55.748;13.194;2023-04-26T09:23:30;2.70;;;1.33;;
11771;SDS011;12556;55.748;13.194;2023-04-26T09:28:44;2.87;;;1.40;;
11771;SDS011;12556;55.748;13.194;2023-04-26T09:31:12;3.67;;;1.60;;
11771;SDS011;12556;55.748;13.194;2023-04-26T09:34:00;2.63;;;1.60;;
11771;SDS011;12556;55.748;13.194;2023-04-26T09:36:27;5.37;;;1.90;;
11771;SDS011;12556;55.748;13.194;2023-04-26T09:38:54;4.23;;;1.77;;
11771;SDS011;12556;55.748;13.194;2023-04-26T09:41:22;4.27;;;1.57;;
11771;SDS011;12556;55.748;13.194;2023-04-26T09:43:51;5.67;;;2.00;;
11771;SDS011;12556;55.748;13.194;2023-04-26T09:46:21;3.87;;;2.17;;
11771;SDS011;12556;55.748;13.194;2023-04-26T09:48:59;4.27;;;1.63;;
11771;SDS011;12556;55.748;13.194;2023-04-26T09:51:27;2.87;;;1.50;;
11771;SDS011;12556;55.748;13.194;2023-04-26T09:53:54;5.03;;;1.67;;
11771;SDS011;12556;55.748;13.194;2023-04-26T09:56:22;4.43;;;1.23;;
11771;SDS011;12556;55.748;13.194;2023-04-26T09:58:56;4.13;;;1.50;;
11771;SDS011;12556;55.748;13.194;2023-04-26T10:01:25;8.23;;;2.07;;
11771;SDS011;12556;55.748;13.194;2023-04-26T10:03:54;2.80;;;1.40;;
11771;SDS011;12556;55.748;13.194;2023-04-26T10:06:21;5.33;;;1.50;;
11771;SDS011;12556;55.748;13.194;2023-04-26T10:08:49;5.00;;;1.53;;
11771;SDS011;12556;55.748;13.194;2023-04-26T10:11:16;2.60;;;1.47;;
11771;SDS011;12556;55.748;13.194;2023-04-26T10:13:45;2.23;;;1.50;;
11771;SDS011;12556;55.748;13.194;2023-04-26T10:16:15;7.70;;;1.80;;
11771;SDS011;12556;55.748;13.194;2023-04-26T10:18:42;3.93;;;1.70;;
11771;SDS011;12556;55.748;13.194;2023-04-26T10:21:10;4.67;;;1.30;;
11771;SDS011;12556;55.748;13.194;2023-04-26T10:23:46;4.53;;;1.60;;
11771;SDS011;12556;55.748;13.194;2023-04-26T10:29:14;4.37;;;1.53;;
11771;SDS011;12556;55.748;13.194;2023-04-26T10:34:36;5.90;;;1.87;;
11771;SDS011;12556;55.748;13.194;2023-04-26T10:37:10;6.43;;;1.90;;
11771;SDS011;12556;55.748;13.194;2023-04-26T10:39:38;5.73;;;1.63;;
11771;SDS011;12556;55.748;13.194;2023-04-26T10:42:18;4.83;;;1.57;;
11771;SDS011;12556;55.748;13.194;2023-04-26T10:44:49;4.63;;;1.50;;
11771;SDS011;12556;55.748;13.194;2023-04-26T10:47:20;5.03;;;2.03;;
11771;SDS011;12556;55.748;13.194;2023-04-26T10:49:48;2.00;;;1.40;;
11771;SDS011;12556;55.748;13.194;2023-04-26T10:52:15;5.30;;;1.83;;
11771;SDS011;12556;55.748;13.194;2023-04-26T10:54:48;3.90;;;1.77;;
11771;SDS011;12556;55.748;13.194;2023-04-26T10:57:16;4.90;;;1.47;;
11771;SDS011;12556;55.748;13.194;2023-04-26T11:02:43;4.33;;;1.80;;
11771;SDS011;12556;55.748;13.194;2023-04-26T11:05:20;4.33;;;1.70;;
11771;SDS011;12556;55.748;13.194;2023-04-26T11:08:02;3.60;;;1.23;;
11771;SDS011;12556;55.748;13.194;2023-04-26T11:10:30;2.27;;;1.23;;
11771;SDS011;12556;55.748;13.194;2023-04-26T11:13:00;3.70;;;1.30;;
11771;SDS011;12556;55.748;13.194;2023-04-26T11:15:29;5.17;;;1.37;;
11771;SDS011;12556;55.748;13.194;2023-04-26T11:17:56;3.90;;;1.70;;
11771;SDS011;12556;55.748;13.194;2023-04-26T11:20:27;2.87;;;1.20;;
11771;SDS011;12556;55.748;13.194;2023-04-26T11:22:55;6.83;;;1.43;;
11771;SDS011;12556;55.748;13.194;2023-04-26T11:25:23;4.87;;;1.40;;
11771;SDS011;12556;55.748;13.194;2023-04-26T11:27:55;3.17;;;1.50;;
11771;SDS011;12556;55.748;13.194;2023-04-26T11:30:27;1.80;;;1.07;;
11771;SDS011;12556;55.748;13.194;2023-04-26T11:32:57;3.67;;;1.30;;
11771;SDS011;12556;55.748;13.194;2023-04-26T11:35:24;3.50;;;1.20;;
11771;SDS011;12556;55.748;13.194;2023-04-26T11:37:53;2.43;;;1.23;;
11771;SDS011;12556;55.748;13.194;2023-04-26T11:40:26;4.83;;;1.50;;
11771;SDS011;12556;55.748;13.194;2023-04-26T11:42:59;3.40;;;1.23;;
11771;SDS011;12556;55.748;13.194;2023-04-26T11:45:27;3.03;;;1.40;;
11771;SDS011;12556;55.748;13.194;2023-04-26T11:47:56;2.33;;;1.17;;
11771;SDS011;12556;55.748;13.194;2023-04-26T11:50:23;3.83;;;1.43;;
11771;SDS011;12556;55.748;13.194;2023-04-26T11:52:52;3.07;;;1.70;;
11771;SDS011;12556;55.748;13.194;2023-04-26T11:55:22;4.13;;;1.30;;
11771;SDS011;12556;55.748;13.194;2023-04-26T11:57:50;4.90;;;1.53;;
11771;SDS011;12556;55.748;13.194;2023-04-26T12:00:17;6.53;;;1.50;;
11771;SDS011;12556;55.748;13.194;2023-04-26T12:02:45;5.70;;;1.60;;
11771;SDS011;12556;55.748;13.194;2023-04-26T12:05:23;4.07;;;1.40;;
11771;SDS011;12556;55.748;13.194;2023-04-26T12:07:52;2.93;;;1.50;;
11771;SDS011;12556;55.748;13.194;2023-04-26T12:10:22;5.93;;;1.03;;
11771;SDS011;12556;55.748;13.194;2023-04-26T12:12:51;5.50;;;1.70;;
11771;SDS011;12556;55.748;13.194;2023-04-26T12:15:24;4.33;;;1.50;;
11771;SDS011;12556;55.748;13.194;2023-04-26T12:17:59;4.47;;;1.37;;
11771;SDS011;12556;55.748;13.194;2023-04-26T12:20:32;4.50;;;1.50;;
11771;SDS011;12556;55.748;13.194;2023-04-26T12:23:00;3.90;;;1.87;;
11771;SDS011;12556;55.748;13.194;2023-04-26T12:25:29;4.87;;;1.90;;
11771;SDS011;12556;55.748;13.194;2023-04-26T12:27:57;4.30;;;1.40;;
11771;SDS011;12556;55.748;13.194;2023-04-26T12:30:25;3.23;;;1.43;;
11771;SDS011;12556;55.748;13.194;2023-04-26T12:32:53;5.53;;;1.63;;
11771;SDS011;12556;55.748;13.194;2023-04-26T12:35:20;4.23;;;1.33;;
11771;SDS011;12556;55.748;13.194;2023-04-26T12:37:49;5.97;;;1.53;;
11771;SDS011;12556;55.748;13.194;2023-04-26T12:40:17;3.23;;;1.37;;
11771;SDS011;12556;55.748;13.194;2023-04-26T12:42:45;3.57;;;1.20;;
11771;SDS011;12556;55.748;13.194;2023-04-26T12:45:13;2.83;;;1.33;;
11771;SDS011;12556;55.748;13.194;2023-04-26T12:47:41;5.57;;;1.60;;
11771;SDS011;12556;55.748;13.194;2023-04-26T12:50:08;5.03;;;1.53;;
11771;SDS011;12556;55.748;13.194;2023-04-26T12:52:36;4.70;;;1.53;;
11771;SDS011;12556;55.748;13.194;2023-04-26T12:55:06;4.63;;;1.40;;
11771;SDS011;12556;55.748;13.194;2023-04-26T12:57:34;3.80;;;1.37;;
11771;SDS011;12556;55.748;13.194;2023-04-26T13:00:02;5.20;;;1.50;;
11771;SDS011;12556;55.748;13.194;2023-04-26T13:02:29;4.17;;;1.20;;
11771;SDS011;12556;55.748;13.194;2023-04-26T13:04:56;3.10;;;1.33;;
11771;SDS011;12556;55.748;13.194;2023-04-26T13:07:24;2.83;;;1.53;;
11771;SDS011;12556;55.748;13.194;2023-04-26T13:09:51;2.93;;;1.27;;
11771;SDS011;12556;55.748;13.194;2023-04-26T13:12:20;1.97;;;1.20;;
11771;SDS011;12556;55.748;13.194;2023-04-26T13:14:47;2.03;;;1.43;;
11771;SDS011;12556;55.748;13.194;2023-04-26T13:17:13;2.80;;;1.40;;
11771;SDS011;12556;55.748;13.194;2023-04-26T13:19:40;1.97;;;1.30;;
11771;SDS011;12556;55.748;13.194;2023-04-26T13:22:09;3.03;;;1.37;;
11771;SDS011;12556;55.748;13.194;2023-04-26T13:24:36;3.10;;;1.30;;
11771;SDS011;12556;55.748;13.194;2023-04-26T13:27:03;3.43;;;1.30;;
11771;SDS011;12556;55.748;13.194;2023-04-26T13:29:32;2.37;;;1.30;;
11771;SDS011;12556;55.748;13.194;2023-04-26T13:31:59;3.77;;;1.10;;
11771;SDS011;12556;55.748;13.194;2023-04-26T13:34:27;2.57;;;1.13;;
11771;SDS011;12556;55.748;13.194;2023-04-26T13:36:55;3.30;;;1.50;;
11771;SDS011;12556;55.748;13.194;2023-04-26T13:39:22;2.93;;;1.13;;
11771;SDS011;12556;55.748;13.194;2023-04-26T13:41:50;3.43;;;1.50;;
11771;SDS011;12556;55.748;13.194;2023-04-26T13:44:17;3.83;;;1.20;;
11771;SDS011;12556;55.748;13.194;2023-04-26T13:46:46;5.23;;;1.07;;
11771;SDS011;12556;55.748;13.194;2023-04-26T13:49:13;5.63;;;1.60;;
11771;SDS011;12556;55.748;13.194;2023-04-26T13:51:41;2.63;;;1.50;;
11771;SDS011;12556;55.748;13.194;2023-04-26T13:54:08;2.77;;;1.30;;
11771;SDS011;12556;55.748;13.194;2023-04-26T13:56:35;4.10;;;1.47;;
11771;SDS011;12556;55.748;13.194;2023-04-26T13:59:03;4.10;;;1.30;;
11771;SDS011;12556;55.748;13.194;2023-04-26T14:01:32;5.03;;;1.33;;
11771;SDS011;12556;55.748;13.194;2023-04-26T14:04:02;2.30;;;1.30;;
11771;SDS011;12556;55.748;13.194;2023-04-26T14:06:29;4.57;;;1.13;;
11771;SDS011;12556;55.748;13.194;2023-04-26T14:08:58;5.20;;;1.20;;
11771;SDS011;12556;55.748;13.194;2023-04-26T14:11:25;4.03;;;1.40;;
11771;SDS011;12556;55.748;13.194;2023-04-26T14:13:52;3.53;;;1.30;;
11771;SDS011;12556;55.748;13.194;2023-04-26T14:16:21;3.93;;;1.60;;
11771;SDS011;12556;55.748;13.194;2023-04-26T14:18:48;2.53;;;1.13;;
11771;SDS011;12556;55.748;13.194;2023-04-26T14:21:17;3.33;;;1.20;;
11771;SDS011;12556;55.748;13.194;2023-04-26T14:23:43;1.53;;;0.90;;
11771;SDS011;12556;55.748;13.194;2023-04-26T14:26:10;2.80;;;1.20;;
11771;SDS011;12556;55.748;13.194;2023-04-26T14:28:37;1.77;;;1.10;;
11771;SDS011;12556;55.748;13.194;2023-04-26T14:31:05;2.50;;;1.20;;
11771;SDS011;12556;55.748;13.194;2023-04-26T14:33:32;1.63;;;1.00;;
11771;SDS011;12556;55.748;13.194;2023-04-26T14:35:59;2.77;;;0.90;;
11771;SDS011;12556;55.748;13.194;2023-04-26T14:38:27;1.70;;;1.00;;
11771;SDS011;12556;55.748;13.194;2023-04-26T14:40:54;2.00;;;0.90;;
11771;SDS011;12556;55.748;13.194;2023-04-26T14:43:21;4.77;;;1.30;;
11771;SDS011;12556;55.748;13.194;2023-04-26T14:45:48;3.37;;;1.47;;
11771;SDS011;12556;55.748;13.194;2023-04-26T14:48:15;5.90;;;1.57;;